sensor_id;sensor_type;location;lat;lon;timestamp;P1;durP1;ratioP1;P2;durP2;ratioP2
6785;SDS011;3430;51.192;6.048;2022-08-21T00:01:12;2.30;;;2.10;;
6785;SDS011;3430;51.192;6.048;2022-08-21T00:03:39;3.60;;;2.27;;
6785;SDS011;3430;51.192;6.048;2022-08-21T00:06:08;3.30;;;2.20;;
6785;SDS011;3430;51.192;6.048;2022-08-21T00:08:34;3.80;;;2.13;;
6785;SDS011;3430;51.192;6.048;2022-08-21T00:11:00;2.33;;;1.93;;
6785;SDS011;3430;51.192;6.048;2022-08-21T00:13:29;3.77;;;2.07;;
6785;SDS011;3430;51.192;6.048;2022-08-21T00:15:55;2.57;;;1.93;;
6785;SDS011;3430;51.192;6.048;2022-08-21T00:18:21;2.93;;;2.00;;
6785;SDS011;3430;51.192;6.048;2022-08-21T00:20:47;1.90;;;1.80;;
6785;SDS011;3430;51.192;6.048;2022-08-21T00:23:12;2.47;;;2.03;;
6785;SDS011;3430;51.192;6.048;2022-08-21T00:25:39;3.23;;;1.90;;
6785;SDS011;3430;51.192;6.048;2022-08-21T00:28:04;2.60;;;2.20;;
6785;SDS011;3430;51.192;6.048;2022-08-21T00:30:31;2.57;;;2.10;;
6785;SDS011;3430;51.192;6.048;2022-08-21T00:32:57;2.40;;;2.20;;
6785;SDS011;3430;51.192;6.048;2022-08-21T00:35:25;30.13;;;3.80;;
6785;SDS011;3430;51.192;6.048;2022-08-21T00:37:50;2.50;;;2.10;;
6785;SDS011;3430;51.192;6.048;2022-08-21T00:40:17;2.50;;;1.87;;
6785;SDS011;3430;51.192;6.048;2022-08-21T00:42:43;2.43;;;2.03;;
6785;SDS011;3430;51.192;6.048;2022-08-21T00:45:09;3.30;;;2.40;;
6785;SDS011;3430;51.192;6.048;2022-08-21T00:47:35;2.77;;;2.03;;
6785;SDS011;3430;51.192;6.048;2022-08-21T00:50:00;2.80;;;1.83;;
6785;SDS011;3430;51.192;6.048;2022-08-21T00:52:27;4.17;;;1.93;;
6785;SDS011;3430;51.192;6.048;2022-08-21T00:54:54;3.20;;;1.90;;
6785;SDS011;3430;51.192;6.048;2022-08-21T00:57:22;2.50;;;1.80;;
6785;SDS011;3430;51.192;6.048;2022-08-21T00:59:49;2.03;;;1.83;;
6785;SDS011;3430;51.192;6.048;2022-08-21T01:02:17;2.23;;;2.03;;
6785;SDS011;3430;51.192;6.048;2022-08-21T01:04:42;2.60;;;1.93;;
6785;SDS011;3430;51.192;6.048;2022-08-21T01:07:08;2.60;;;2.33;;
6785;SDS011;3430;51.192;6.048;2022-08-21T01:09:34;2.60;;;1.93;;
6785;SDS011;3430;51.192;6.048;2022-08-21T01:12:00;3.00;;;2.00;;
6785;SDS011;3430;51.192;6.048;2022-08-21T01:14:26;4.27;;;2.20;;
6785;SDS011;3430;51.192;6.048;2022-08-21T01:16:52;2.47;;;2.00;;
6785;SDS011;3430;51.192;6.048;2022-08-21T01:19:20;2.30;;;2.00;;
6785;SDS011;3430;51.192;6.048;2022-08-21T01:21:45;4.23;;;1.90;;
6785;SDS011;3430;51.192;6.048;2022-08-21T01:24:11;2.07;;;1.90;;
6785;SDS011;3430;51.192;6.048;2022-08-21T01:26:42;1.80;;;1.67;;
6785;SDS011;3430;51.192;6.048;2022-08-21T01:31:36;2.83;;;1.87;;
6785;SDS011;3430;51.192;6.048;2022-08-21T01:34:02;2.30;;;2.10;;
6785;SDS011;3430;51.192;6.048;2022-08-21T01:36:28;2.50;;;2.27;;
6785;SDS011;3430;51.192;6.048;2022-08-21T01:38:54;6.43;;;2.37;;
6785;SDS011;3430;51.192;6.048;2022-08-21T01:41:20;3.33;;;2.00;;
6785;SDS011;3430;51.192;6.048;2022-08-21T01:43:46;2.10;;;1.90;;
6785;SDS011;3430;51.192;6.048;2022-08-21T01:46:11;4.37;;;2.00;;
6785;SDS011;3430;51.192;6.048;2022-08-21T01:48:38;2.67;;;2.17;;
6785;SDS011;3430;51.192;6.048;2022-08-21T01:51:04;3.30;;;2.20;;
6785;SDS011;3430;51.192;6.048;2022-08-21T01:53:29;2.60;;;2.07;;
6785;SDS011;3430;51.192;6.048;2022-08-21T01:55:55;2.23;;;2.03;;
6785;SDS011;3430;51.192;6.048;2022-08-21T01:58:23;2.37;;;2.17;;
6785;SDS011;3430;51.192;6.048;2022-08-21T02:00:49;3.80;;;2.40;;
6785;SDS011;3430;51.192;6.048;2022-08-21T02:03:15;5.50;;;2.60;;
6785;SDS011;3430;51.192;6.048;2022-08-21T02:05:40;2.00;;;1.77;;
6785;SDS011;3430;51.192;6.048;2022-08-21T02:08:06;3.57;;;2.97;;
6785;SDS011;3430;51.192;6.048;2022-08-21T02:10:33;2.17;;;1.97;;
6785;SDS011;3430;51.192;6.048;2022-08-21T02:12:59;2.80;;;2.30;;
6785;SDS011;3430;51.192;6.048;2022-08-21T02:15:26;3.23;;;2.47;;
6785;SDS011;3430;51.192;6.048;2022-08-21T02:17:53;5.03;;;2.40;;
6785;SDS011;3430;51.192;6.048;2022-08-21T02:20:24;2.90;;;2.40;;
6785;SDS011;3430;51.192;6.048;2022-08-21T02:22:50;3.00;;;2.20;;
6785;SDS011;3430;51.192;6.048;2022-08-21T02:25:17;3.37;;;2.30;;
6785;SDS011;3430;51.192;6.048;2022-08-21T02:27:43;3.20;;;2.30;;
6785;SDS011;3430;51.192;6.048;2022-08-21T02:30:14;2.43;;;2.03;;
6785;SDS011;3430;51.192;6.048;2022-08-21T02:32:40;2.90;;;2.00;;
6785;SDS011;3430;51.192;6.048;2022-08-21T02:35:07;2.53;;;2.30;;
6785;SDS011;3430;51.192;6.048;2022-08-21T02:37:33;2.63;;;2.20;;
6785;SDS011;3430;51.192;6.048;2022-08-21T02:40:02;2.70;;;1.97;;
6785;SDS011;3430;51.192;6.048;2022-08-21T02:42:28;3.87;;;2.23;;
6785;SDS011;3430;51.192;6.048;2022-08-21T02:44:55;5.50;;;2.33;;
6785;SDS011;3430;51.192;6.048;2022-08-21T02:47:21;2.50;;;2.20;;
6785;SDS011;3430;51.192;6.048;2022-08-21T02:49:46;4.23;;;2.30;;
6785;SDS011;3430;51.192;6.048;2022-08-21T02:52:14;4.70;;;2.50;;
6785;SDS011;3430;51.192;6.048;2022-08-21T02:54:39;5.20;;;3.10;;
6785;SDS011;3430;51.192;6.048;2022-08-21T02:57:05;2.80;;;2.43;;
6785;SDS011;3430;51.192;6.048;2022-08-21T02:59:30;3.30;;;2.43;;
6785;SDS011;3430;51.192;6.048;2022-08-21T03:01:56;3.70;;;2.20;;
6785;SDS011;3430;51.192;6.048;2022-08-21T03:04:21;3.20;;;2.43;;
6785;SDS011;3430;51.192;6.048;2022-08-21T03:06:47;2.70;;;2.30;;
6785;SDS011;3430;51.192;6.048;2022-08-21T03:09:13;2.30;;;2.10;;
6785;SDS011;3430;51.192;6.048;2022-08-21T03:11:39;3.43;;;2.50;;
6785;SDS011;3430;51.192;6.048;2022-08-21T03:14:09;2.40;;;2.20;;
6785;SDS011;3430;51.192;6.048;2022-08-21T03:16:34;4.17;;;2.30;;
6785;SDS011;3430;51.192;6.048;2022-08-21T03:19:00;2.63;;;2.43;;
6785;SDS011;3430;51.192;6.048;2022-08-21T03:21:25;3.10;;;2.00;;
6785;SDS011;3430;51.192;6.048;2022-08-21T03:23:51;3.80;;;2.70;;
6785;SDS011;3430;51.192;6.048;2022-08-21T03:26:19;5.63;;;2.67;;
6785;SDS011;3430;51.192;6.048;2022-08-21T03:28:45;3.80;;;2.80;;
6785;SDS011;3430;51.192;6.048;2022-08-21T03:31:10;3.03;;;2.60;;
6785;SDS011;3430;51.192;6.048;2022-08-21T03:33:36;2.57;;;2.37;;
6785;SDS011;3430;51.192;6.048;2022-08-21T03:36:03;3.90;;;2.50;;
6785;SDS011;3430;51.192;6.048;2022-08-21T03:38:30;3.03;;;2.60;;
6785;SDS011;3430;51.192;6.048;2022-08-21T03:40:56;3.60;;;3.10;;
6785;SDS011;3430;51.192;6.048;2022-08-21T03:43:22;2.70;;;2.37;;
6785;SDS011;3430;51.192;6.048;2022-08-21T03:45:48;3.33;;;2.90;;
6785;SDS011;3430;51.192;6.048;2022-08-21T03:48:13;3.37;;;2.47;;
6785;SDS011;3430;51.192;6.048;2022-08-21T03:50:40;3.07;;;2.50;;
6785;SDS011;3430;51.192;6.048;2022-08-21T03:53:06;6.63;;;2.87;;
6785;SDS011;3430;51.192;6.048;2022-08-21T03:55:32;3.47;;;2.60;;
6785;SDS011;3430;51.192;6.048;2022-08-21T03:57:57;4.33;;;3.13;;
6785;SDS011;3430;51.192;6.048;2022-08-21T04:00:23;4.27;;;2.47;;
6785;SDS011;3430;51.192;6.048;2022-08-21T04:02:48;3.90;;;3.10;;
6785;SDS011;3430;51.192;6.048;2022-08-21T04:05:15;6.30;;;3.40;;
6785;SDS011;3430;51.192;6.048;2022-08-21T04:08:02;3.60;;;2.53;;
6785;SDS011;3430;51.192;6.048;2022-08-21T04:10:29;3.90;;;3.07;;
6785;SDS011;3430;51.192;6.048;2022-08-21T04:12:55;3.77;;;2.47;;
6785;SDS011;3430;51.192;6.048;2022-08-21T04:15:21;3.13;;;2.83;;
6785;SDS011;3430;51.192;6.048;2022-08-21T04:17:47;3.83;;;2.93;;
6785;SDS011;3430;51.192;6.048;2022-08-21T04:20:13;5.80;;;3.00;;
6785;SDS011;3430;51.192;6.048;2022-08-21T04:22:39;3.60;;;2.87;;
6785;SDS011;3430;51.192;6.048;2022-08-21T04:25:05;3.67;;;2.70;;
6785;SDS011;3430;51.192;6.048;2022-08-21T04:27:30;4.77;;;2.80;;
6785;SDS011;3430;51.192;6.048;2022-08-21T04:29:56;4.17;;;2.80;;
6785;SDS011;3430;51.192;6.048;2022-08-21T04:32:25;3.83;;;2.97;;
6785;SDS011;3430;51.192;6.048;2022-08-21T04:34:56;4.40;;;3.67;;
6785;SDS011;3430;51.192;6.048;2022-08-21T04:37:22;5.73;;;3.13;;
6785;SDS011;3430;51.192;6.048;2022-08-21T04:39:47;5.93;;;2.63;;
6785;SDS011;3430;51.192;6.048;2022-08-21T04:42:13;2.80;;;2.60;;
6785;SDS011;3430;51.192;6.048;2022-08-21T04:44:39;3.93;;;2.57;;
6785;SDS011;3430;51.192;6.048;2022-08-21T04:47:05;4.13;;;2.60;;
6785;SDS011;3430;51.192;6.048;2022-08-21T04:49:30;3.20;;;2.63;;
6785;SDS011;3430;51.192;6.048;2022-08-21T04:51:56;2.73;;;2.53;;
6785;SDS011;3430;51.192;6.048;2022-08-21T04:54:21;4.03;;;2.43;;
6785;SDS011;3430;51.192;6.048;2022-08-21T04:56:59;4.90;;;2.93;;
6785;SDS011;3430;51.192;6.048;2022-08-21T04:59:26;3.13;;;2.77;;
6785;SDS011;3430;51.192;6.048;2022-08-21T05:01:53;4.73;;;2.87;;
6785;SDS011;3430;51.192;6.048;2022-08-21T05:04:22;5.60;;;2.83;;
6785;SDS011;3430;51.192;6.048;2022-08-21T05:06:49;3.47;;;2.67;;
6785;SDS011;3430;51.192;6.048;2022-08-21T05:09:16;3.20;;;2.50;;
6785;SDS011;3430;51.192;6.048;2022-08-21T05:11:43;2.87;;;2.50;;
6785;SDS011;3430;51.192;6.048;2022-08-21T05:14:09;3.40;;;2.67;;
6785;SDS011;3430;51.192;6.048;2022-08-21T05:16:34;3.30;;;2.57;;
6785;SDS011;3430;51.192;6.048;2022-08-21T05:19:00;3.50;;;2.37;;
6785;SDS011;3430;51.192;6.048;2022-08-21T05:21:25;3.33;;;2.70;;
6785;SDS011;3430;51.192;6.048;2022-08-21T05:23:51;4.93;;;2.67;;
6785;SDS011;3430;51.192;6.048;2022-08-21T05:26:16;4.27;;;2.63;;
6785;SDS011;3430;51.192;6.048;2022-08-21T05:28:42;4.47;;;2.57;;
6785;SDS011;3430;51.192;6.048;2022-08-21T05:31:07;3.03;;;2.53;;
6785;SDS011;3430;51.192;6.048;2022-08-21T05:33:33;3.57;;;2.67;;
6785;SDS011;3430;51.192;6.048;2022-08-21T05:35:58;2.73;;;2.33;;
6785;SDS011;3430;51.192;6.048;2022-08-21T05:38:24;2.87;;;2.40;;
6785;SDS011;3430;51.192;6.048;2022-08-21T05:40:50;2.73;;;2.47;;
6785;SDS011;3430;51.192;6.048;2022-08-21T05:43:16;3.97;;;2.33;;
6785;SDS011;3430;51.192;6.048;2022-08-21T05:45:42;4.90;;;2.63;;
6785;SDS011;3430;51.192;6.048;2022-08-21T05:48:07;5.07;;;2.67;;
6785;SDS011;3430;51.192;6.048;2022-08-21T05:50:33;4.27;;;2.43;;
6785;SDS011;3430;51.192;6.048;2022-08-21T05:52:59;2.93;;;2.20;;
6785;SDS011;3430;51.192;6.048;2022-08-21T05:55:25;5.83;;;2.77;;
6785;SDS011;3430;51.192;6.048;2022-08-21T05:57:50;6.47;;;2.87;;
6785;SDS011;3430;51.192;6.048;2022-08-21T06:00:16;2.87;;;2.30;;
6785;SDS011;3430;51.192;6.048;2022-08-21T06:02:41;4.27;;;2.73;;
6785;SDS011;3430;51.192;6.048;2022-08-21T06:05:07;2.40;;;2.20;;
6785;SDS011;3430;51.192;6.048;2022-08-21T06:07:33;3.07;;;2.50;;
6785;SDS011;3430;51.192;6.048;2022-08-21T06:09:58;4.17;;;2.40;;
6785;SDS011;3430;51.192;6.048;2022-08-21T06:12:25;2.50;;;2.23;;
6785;SDS011;3430;51.192;6.048;2022-08-21T06:14:50;2.93;;;2.20;;
6785;SDS011;3430;51.192;6.048;2022-08-21T06:17:17;2.30;;;2.00;;
6785;SDS011;3430;51.192;6.048;2022-08-21T06:19:42;3.57;;;2.50;;
6785;SDS011;3430;51.192;6.048;2022-08-21T06:22:07;4.17;;;2.20;;
6785;SDS011;3430;51.192;6.048;2022-08-21T06:24:33;2.97;;;2.40;;
6785;SDS011;3430;51.192;6.048;2022-08-21T06:27:03;4.43;;;2.17;;
6785;SDS011;3430;51.192;6.048;2022-08-21T06:29:29;2.57;;;1.90;;
6785;SDS011;3430;51.192;6.048;2022-08-21T06:31:54;2.83;;;2.10;;
6785;SDS011;3430;51.192;6.048;2022-08-21T06:34:20;2.60;;;2.13;;
6785;SDS011;3430;51.192;6.048;2022-08-21T06:36:46;4.70;;;2.40;;
6785;SDS011;3430;51.192;6.048;2022-08-21T06:39:11;3.07;;;2.50;;
6785;SDS011;3430;51.192;6.048;2022-08-21T06:41:38;4.93;;;2.00;;
6785;SDS011;3430;51.192;6.048;2022-08-21T06:44:04;4.13;;;2.30;;
6785;SDS011;3430;51.192;6.048;2022-08-21T06:46:29;4.63;;;2.33;;
6785;SDS011;3430;51.192;6.048;2022-08-21T06:48:55;2.17;;;1.93;;
6785;SDS011;3430;51.192;6.048;2022-08-21T06:51:21;2.43;;;2.17;;
6785;SDS011;3430;51.192;6.048;2022-08-21T06:53:46;2.87;;;2.40;;
6785;SDS011;3430;51.192;6.048;2022-08-21T06:56:12;2.03;;;1.83;;
6785;SDS011;3430;51.192;6.048;2022-08-21T06:58:37;4.73;;;2.63;;
6785;SDS011;3430;51.192;6.048;2022-08-21T07:01:03;2.77;;;2.00;;
6785;SDS011;3430;51.192;6.048;2022-08-21T07:03:33;2.77;;;1.80;;
6785;SDS011;3430;51.192;6.048;2022-08-21T07:05:59;3.03;;;2.10;;
6785;SDS011;3430;51.192;6.048;2022-08-21T07:08:25;2.30;;;2.10;;
6785;SDS011;3430;51.192;6.048;2022-08-21T07:10:52;2.67;;;2.23;;
6785;SDS011;3430;51.192;6.048;2022-08-21T07:13:20;2.57;;;2.10;;
6785;SDS011;3430;51.192;6.048;2022-08-21T07:15:45;3.10;;;1.90;;
6785;SDS011;3430;51.192;6.048;2022-08-21T07:18:11;3.40;;;1.97;;
6785;SDS011;3430;51.192;6.048;2022-08-21T07:20:37;3.23;;;2.07;;
6785;SDS011;3430;51.192;6.048;2022-08-21T07:23:03;2.07;;;1.80;;
6785;SDS011;3430;51.192;6.048;2022-08-21T07:25:30;4.53;;;2.10;;
6785;SDS011;3430;51.192;6.048;2022-08-21T07:27:56;2.93;;;1.93;;
6785;SDS011;3430;51.192;6.048;2022-08-21T07:30:22;4.50;;;2.17;;
6785;SDS011;3430;51.192;6.048;2022-08-21T07:32:47;6.23;;;2.00;;
6785;SDS011;3430;51.192;6.048;2022-08-21T07:35:16;2.13;;;1.90;;
6785;SDS011;3430;51.192;6.048;2022-08-21T07:37:42;3.10;;;1.97;;
6785;SDS011;3430;51.192;6.048;2022-08-21T07:40:07;2.83;;;1.73;;
6785;SDS011;3430;51.192;6.048;2022-08-21T07:42:33;3.87;;;2.10;;
6785;SDS011;3430;51.192;6.048;2022-08-21T07:44:58;9.63;;;2.40;;
6785;SDS011;3430;51.192;6.048;2022-08-21T07:47:24;6.57;;;2.03;;
6785;SDS011;3430;51.192;6.048;2022-08-21T07:49:49;2.57;;;2.00;;
6785;SDS011;3430;51.192;6.048;2022-08-21T07:52:14;3.70;;;1.63;;
6785;SDS011;3430;51.192;6.048;2022-08-21T07:54:40;3.30;;;1.80;;
6785;SDS011;3430;51.192;6.048;2022-08-21T07:57:05;3.93;;;1.87;;
6785;SDS011;3430;51.192;6.048;2022-08-21T07:59:31;2.63;;;1.70;;
6785;SDS011;3430;51.192;6.048;2022-08-21T08:01:56;2.10;;;1.90;;
6785;SDS011;3430;51.192;6.048;2022-08-21T08:04:22;4.30;;;1.60;;
6785;SDS011;3430;51.192;6.048;2022-08-21T08:06:47;1.80;;;1.70;;
6785;SDS011;3430;51.192;6.048;2022-08-21T08:09:13;3.23;;;1.80;;
6785;SDS011;3430;51.192;6.048;2022-08-21T08:11:38;4.07;;;1.80;;
6785;SDS011;3430;51.192;6.048;2022-08-21T08:14:06;2.37;;;1.67;;
6785;SDS011;3430;51.192;6.048;2022-08-21T08:16:31;4.67;;;2.00;;
6785;SDS011;3430;51.192;6.048;2022-08-21T08:18:56;3.50;;;1.80;;
6785;SDS011;3430;51.192;6.048;2022-08-21T08:21:22;5.23;;;2.00;;
6785;SDS011;3430;51.192;6.048;2022-08-21T08:23:48;3.03;;;2.00;;
6785;SDS011;3430;51.192;6.048;2022-08-21T08:26:13;3.30;;;1.30;;
6785;SDS011;3430;51.192;6.048;2022-08-21T08:28:40;2.00;;;1.47;;
6785;SDS011;3430;51.192;6.048;2022-08-21T08:31:06;5.63;;;1.97;;
6785;SDS011;3430;51.192;6.048;2022-08-21T08:33:31;4.90;;;1.80;;
6785;SDS011;3430;51.192;6.048;2022-08-21T08:35:57;2.87;;;1.47;;
6785;SDS011;3430;51.192;6.048;2022-08-21T08:38:25;3.53;;;1.70;;
6785;SDS011;3430;51.192;6.048;2022-08-21T08:41:10;2.60;;;1.37;;
6785;SDS011;3430;51.192;6.048;2022-08-21T08:43:37;2.43;;;1.40;;
6785;SDS011;3430;51.192;6.048;2022-08-21T08:46:04;3.57;;;1.73;;
6785;SDS011;3430;51.192;6.048;2022-08-21T08:50:56;2.30;;;1.80;;
6785;SDS011;3430;51.192;6.048;2022-08-21T08:53:28;5.40;;;2.50;;
6785;SDS011;3430;51.192;6.048;2022-08-21T08:55:55;2.93;;;1.50;;
6785;SDS011;3430;51.192;6.048;2022-08-21T08:58:23;5.47;;;1.70;;
6785;SDS011;3430;51.192;6.048;2022-08-21T09:00:50;4.57;;;1.93;;
6785;SDS011;3430;51.192;6.048;2022-08-21T09:03:16;5.77;;;1.83;;
6785;SDS011;3430;51.192;6.048;2022-08-21T09:10:53;3.07;;;1.90;;
6785;SDS011;3430;51.192;6.048;2022-08-21T09:15:53;1.80;;;1.70;;
6785;SDS011;3430;51.192;6.048;2022-08-21T09:24:16;2.37;;;1.60;;
6785;SDS011;3430;51.192;6.048;2022-08-21T09:26:26;4.07;;;2.20;;
6785;SDS011;3430;51.192;6.048;2022-08-21T09:28:56;3.37;;;2.03;;
6785;SDS011;3430;51.192;6.048;2022-08-21T09:33:48;4.80;;;1.83;;
6785;SDS011;3430;51.192;6.048;2022-08-21T09:36:25;4.60;;;1.77;;
6785;SDS011;3430;51.192;6.048;2022-08-21T09:38:58;3.67;;;1.70;;
6785;SDS011;3430;51.192;6.048;2022-08-21T09:41:28;2.83;;;1.50;;
6785;SDS011;3430;51.192;6.048;2022-08-21T09:43:54;5.07;;;1.73;;
6785;SDS011;3430;51.192;6.048;2022-08-21T09:46:20;3.57;;;1.80;;
6785;SDS011;3430;51.192;6.048;2022-08-21T09:48:47;3.13;;;1.67;;
6785;SDS011;3430;51.192;6.048;2022-08-21T09:51:17;6.10;;;1.80;;
6785;SDS011;3430;51.192;6.048;2022-08-21T09:53:48;2.80;;;1.67;;
6785;SDS011;3430;51.192;6.048;2022-08-21T09:56:18;3.67;;;1.80;;
6785;SDS011;3430;51.192;6.048;2022-08-21T09:59:12;3.27;;;1.60;;
6785;SDS011;3430;51.192;6.048;2022-08-21T10:01:42;4.23;;;1.60;;
6785;SDS011;3430;51.192;6.048;2022-08-21T10:04:11;3.27;;;1.57;;
6785;SDS011;3430;51.192;6.048;2022-08-21T10:06:36;3.27;;;2.00;;
6785;SDS011;3430;51.192;6.048;2022-08-21T10:09:06;2.90;;;1.80;;
6785;SDS011;3430;51.192;6.048;2022-08-21T10:11:33;2.53;;;1.53;;
6785;SDS011;3430;51.192;6.048;2022-08-21T10:14:03;2.73;;;1.80;;
6785;SDS011;3430;51.192;6.048;2022-08-21T10:16:33;1.40;;;1.30;;
6785;SDS011;3430;51.192;6.048;2022-08-21T10:21:34;1.83;;;1.40;;
6785;SDS011;3430;51.192;6.048;2022-08-21T10:24:13;1.47;;;1.37;;
6785;SDS011;3430;51.192;6.048;2022-08-21T10:26:47;2.00;;;1.43;;
6785;SDS011;3430;51.192;6.048;2022-08-21T10:34:33;2.40;;;1.30;;
6785;SDS011;3430;51.192;6.048;2022-08-21T10:39:52;3.00;;;1.23;;
6785;SDS011;3430;51.192;6.048;2022-08-21T10:42:36;5.40;;;1.63;;
6785;SDS011;3430;51.192;6.048;2022-08-21T10:50:10;1.67;;;1.47;;
6785;SDS011;3430;51.192;6.048;2022-08-21T10:55:08;1.80;;;1.20;;
6785;SDS011;3430;51.192;6.048;2022-08-21T11:00:03;3.23;;;1.40;;
6785;SDS011;3430;51.192;6.048;2022-08-21T11:02:39;2.50;;;1.40;;
6785;SDS011;3430;51.192;6.048;2022-08-21T11:05:14;3.27;;;1.33;;
6785;SDS011;3430;51.192;6.048;2022-08-21T11:07:51;1.97;;;1.13;;
6785;SDS011;3430;51.192;6.048;2022-08-21T11:12:48;1.53;;;1.13;;
6785;SDS011;3430;51.192;6.048;2022-08-21T11:17:45;2.90;;;1.20;;
6785;SDS011;3430;51.192;6.048;2022-08-21T11:20:16;2.20;;;1.33;;
6785;SDS011;3430;51.192;6.048;2022-08-21T11:25:29;1.90;;;1.30;;
6785;SDS011;3430;51.192;6.048;2022-08-21T11:35:58;1.73;;;1.40;;
6785;SDS011;3430;51.192;6.048;2022-08-21T11:41:31;2.27;;;1.57;;
6785;SDS011;3430;51.192;6.048;2022-08-21T11:49:17;5.00;;;1.27;;
6785;SDS011;3430;51.192;6.048;2022-08-21T11:51:51;1.50;;;1.23;;
6785;SDS011;3430;51.192;6.048;2022-08-21T11:57:14;1.73;;;1.50;;
6785;SDS011;3430;51.192;6.048;2022-08-21T11:59:53;3.20;;;1.70;;
6785;SDS011;3430;51.192;6.048;2022-08-21T12:02:21;1.67;;;1.30;;
6785;SDS011;3430;51.192;6.048;2022-08-21T12:04:52;1.40;;;1.30;;
6785;SDS011;3430;51.192;6.048;2022-08-21T12:07:29;3.50;;;1.70;;
6785;SDS011;3430;51.192;6.048;2022-08-21T12:09:55;1.60;;;1.50;;
6785;SDS011;3430;51.192;6.048;2022-08-21T12:12:25;2.03;;;1.33;;
6785;SDS011;3430;51.192;6.048;2022-08-21T12:15:03;1.80;;;1.30;;
6785;SDS011;3430;51.192;6.048;2022-08-21T12:17:34;3.37;;;1.30;;
6785;SDS011;3430;51.192;6.048;2022-08-21T12:20:02;2.67;;;1.60;;
6785;SDS011;3430;51.192;6.048;2022-08-21T12:22:40;2.53;;;1.33;;
6785;SDS011;3430;51.192;6.048;2022-08-21T12:25:06;1.23;;;1.00;;
6785;SDS011;3430;51.192;6.048;2022-08-21T12:32:55;2.13;;;1.30;;
6785;SDS011;3430;51.192;6.048;2022-08-21T12:35:21;2.53;;;1.30;;
6785;SDS011;3430;51.192;6.048;2022-08-21T12:37:51;1.87;;;1.27;;
6785;SDS011;3430;51.192;6.048;2022-08-21T12:42:47;2.40;;;1.20;;
6785;SDS011;3430;51.192;6.048;2022-08-21T12:48:26;2.70;;;1.60;;
6785;SDS011;3430;51.192;6.048;2022-08-21T12:51:04;1.23;;;1.13;;
6785;SDS011;3430;51.192;6.048;2022-08-21T12:53:33;1.40;;;1.30;;
6785;SDS011;3430;51.192;6.048;2022-08-21T12:56:07;1.67;;;1.17;;
6785;SDS011;3430;51.192;6.048;2022-08-21T12:58:33;2.03;;;1.70;;
6785;SDS011;3430;51.192;6.048;2022-08-21T13:01:01;1.63;;;1.30;;
6785;SDS011;3430;51.192;6.048;2022-08-21T13:03:27;3.57;;;1.37;;
6785;SDS011;3430;51.192;6.048;2022-08-21T13:05:53;1.30;;;1.13;;
6785;SDS011;3430;51.192;6.048;2022-08-21T13:08:19;3.73;;;1.50;;
6785;SDS011;3430;51.192;6.048;2022-08-21T13:10:49;9.00;;;1.50;;
6785;SDS011;3430;51.192;6.048;2022-08-21T13:13:19;1.60;;;1.20;;
6785;SDS011;3430;51.192;6.048;2022-08-21T13:15:46;2.93;;;1.40;;
6785;SDS011;3430;51.192;6.048;2022-08-21T13:18:19;1.70;;;1.60;;
6785;SDS011;3430;51.192;6.048;2022-08-21T13:20:45;2.13;;;1.43;;
6785;SDS011;3430;51.192;6.048;2022-08-21T13:23:45;1.37;;;1.27;;
6785;SDS011;3430;51.192;6.048;2022-08-21T13:26:16;2.60;;;1.20;;
6785;SDS011;3430;51.192;6.048;2022-08-21T13:28:43;2.27;;;1.60;;
6785;SDS011;3430;51.192;6.048;2022-08-21T13:31:12;1.47;;;1.17;;
6785;SDS011;3430;51.192;6.048;2022-08-21T13:33:38;1.30;;;1.20;;
6785;SDS011;3430;51.192;6.048;2022-08-21T13:38:31;1.70;;;1.20;;
6785;SDS011;3430;51.192;6.048;2022-08-21T13:40:58;2.20;;;1.40;;
6785;SDS011;3430;51.192;6.048;2022-08-21T13:43:28;2.40;;;1.60;;
6785;SDS011;3430;51.192;6.048;2022-08-21T13:45:56;2.50;;;1.30;;
6785;SDS011;3430;51.192;6.048;2022-08-21T13:48:23;1.80;;;1.30;;
6785;SDS011;3430;51.192;6.048;2022-08-21T13:50:50;2.13;;;1.43;;
6785;SDS011;3430;51.192;6.048;2022-08-21T13:53:23;1.40;;;1.30;;
6785;SDS011;3430;51.192;6.048;2022-08-21T13:55:52;1.63;;;1.30;;
6785;SDS011;3430;51.192;6.048;2022-08-21T13:58:41;2.20;;;1.10;;
6785;SDS011;3430;51.192;6.048;2022-08-21T14:01:15;1.10;;;1.00;;
6785;SDS011;3430;51.192;6.048;2022-08-21T14:03:42;2.33;;;1.10;;
6785;SDS011;3430;51.192;6.048;2022-08-21T14:06:26;1.67;;;1.33;;
6785;SDS011;3430;51.192;6.048;2022-08-21T14:08:53;3.60;;;1.40;;
6785;SDS011;3430;51.192;6.048;2022-08-21T14:11:20;2.07;;;1.83;;
6785;SDS011;3430;51.192;6.048;2022-08-21T14:13:49;4.07;;;1.30;;
6785;SDS011;3430;51.192;6.048;2022-08-21T14:16:25;1.53;;;1.30;;
6785;SDS011;3430;51.192;6.048;2022-08-21T14:19:08;2.03;;;1.40;;
6785;SDS011;3430;51.192;6.048;2022-08-21T14:21:35;1.93;;;1.43;;
6785;SDS011;3430;51.192;6.048;2022-08-21T14:26:36;1.90;;;1.20;;
6785;SDS011;3430;51.192;6.048;2022-08-21T14:29:04;1.50;;;1.40;;
6785;SDS011;3430;51.192;6.048;2022-08-21T14:31:31;1.60;;;1.30;;
6785;SDS011;3430;51.192;6.048;2022-08-21T14:33:58;1.30;;;1.20;;
6785;SDS011;3430;51.192;6.048;2022-08-21T14:36:24;1.53;;;1.20;;
6785;SDS011;3430;51.192;6.048;2022-08-21T14:38:49;2.17;;;1.70;;
6785;SDS011;3430;51.192;6.048;2022-08-21T14:41:19;1.27;;;1.17;;
6785;SDS011;3430;51.192;6.048;2022-08-21T14:43:46;2.60;;;1.50;;
6785;SDS011;3430;51.192;6.048;2022-08-21T14:46:13;4.20;;;1.47;;
6785;SDS011;3430;51.192;6.048;2022-08-21T14:48:44;2.87;;;1.30;;
6785;SDS011;3430;51.192;6.048;2022-08-21T14:51:09;6.80;;;1.60;;
6785;SDS011;3430;51.192;6.048;2022-08-21T14:53:35;1.27;;;1.17;;
6785;SDS011;3430;51.192;6.048;2022-08-21T14:56:00;2.47;;;1.80;;
6785;SDS011;3430;51.192;6.048;2022-08-21T14:58:35;2.73;;;1.20;;
6785;SDS011;3430;51.192;6.048;2022-08-21T15:01:01;2.03;;;1.20;;
6785;SDS011;3430;51.192;6.048;2022-08-21T15:03:29;1.70;;;1.33;;
6785;SDS011;3430;51.192;6.048;2022-08-21T15:05:54;4.37;;;1.53;;
6785;SDS011;3430;51.192;6.048;2022-08-21T15:08:20;3.17;;;1.37;;
6785;SDS011;3430;51.192;6.048;2022-08-21T15:10:45;1.63;;;1.23;;
6785;SDS011;3430;51.192;6.048;2022-08-21T15:13:11;4.53;;;1.40;;
6785;SDS011;3430;51.192;6.048;2022-08-21T15:15:41;2.50;;;1.40;;
6785;SDS011;3430;51.192;6.048;2022-08-21T15:18:06;1.50;;;1.40;;
6785;SDS011;3430;51.192;6.048;2022-08-21T15:20:33;2.90;;;1.70;;
6785;SDS011;3430;51.192;6.048;2022-08-21T15:22:58;1.93;;;1.40;;
6785;SDS011;3430;51.192;6.048;2022-08-21T15:25:24;1.50;;;1.40;;
6785;SDS011;3430;51.192;6.048;2022-08-21T15:27:49;3.60;;;1.40;;
6785;SDS011;3430;51.192;6.048;2022-08-21T15:30:15;3.93;;;1.53;;
6785;SDS011;3430;51.192;6.048;2022-08-21T15:32:40;1.53;;;1.30;;
6785;SDS011;3430;51.192;6.048;2022-08-21T15:35:07;3.30;;;1.57;;
6785;SDS011;3430;51.192;6.048;2022-08-21T15:37:32;1.63;;;1.50;;
6785;SDS011;3430;51.192;6.048;2022-08-21T15:39:58;1.37;;;1.27;;
6785;SDS011;3430;51.192;6.048;2022-08-21T15:42:24;1.70;;;1.60;;
6785;SDS011;3430;51.192;6.048;2022-08-21T15:44:51;1.40;;;1.30;;
6785;SDS011;3430;51.192;6.048;2022-08-21T15:47:18;2.00;;;1.20;;
6785;SDS011;3430;51.192;6.048;2022-08-21T15:49:44;2.53;;;1.40;;
6785;SDS011;3430;51.192;6.048;2022-08-21T15:52:12;2.10;;;1.13;;
6785;SDS011;3430;51.192;6.048;2022-08-21T15:54:38;3.33;;;1.50;;
6785;SDS011;3430;51.192;6.048;2022-08-21T15:57:03;1.50;;;1.13;;
6785;SDS011;3430;51.192;6.048;2022-08-21T15:59:29;2.23;;;1.10;;
6785;SDS011;3430;51.192;6.048;2022-08-21T16:01:57;2.07;;;1.23;;
6785;SDS011;3430;51.192;6.048;2022-08-21T16:04:23;2.60;;;1.60;;
6785;SDS011;3430;51.192;6.048;2022-08-21T16:06:49;3.67;;;1.50;;
6785;SDS011;3430;51.192;6.048;2022-08-21T16:09:15;2.20;;;1.50;;
6785;SDS011;3430;51.192;6.048;2022-08-21T16:11:41;3.03;;;1.50;;
6785;SDS011;3430;51.192;6.048;2022-08-21T16:14:06;1.43;;;1.20;;
6785;SDS011;3430;51.192;6.048;2022-08-21T16:16:31;2.13;;;1.40;;
6785;SDS011;3430;51.192;6.048;2022-08-21T16:18:58;2.70;;;1.60;;
6785;SDS011;3430;51.192;6.048;2022-08-21T16:21:23;2.53;;;1.80;;
6785;SDS011;3430;51.192;6.048;2022-08-21T16:23:49;2.97;;;1.90;;
6785;SDS011;3430;51.192;6.048;2022-08-21T16:26:14;3.53;;;1.50;;
6785;SDS011;3430;51.192;6.048;2022-08-21T16:28:41;2.00;;;1.80;;
6785;SDS011;3430;51.192;6.048;2022-08-21T16:31:07;3.37;;;1.63;;
6785;SDS011;3430;51.192;6.048;2022-08-21T16:33:37;2.53;;;1.50;;
6785;SDS011;3430;51.192;6.048;2022-08-21T16:36:03;1.40;;;1.30;;
6785;SDS011;3430;51.192;6.048;2022-08-21T16:38:29;5.87;;;1.90;;
6785;SDS011;3430;51.192;6.048;2022-08-21T16:40:54;3.40;;;2.20;;